Etusivu
METAR-TAF:

METAR-TAF

Lentoasemat :

Oradea, Romania

Leveyspiiri: 47-03N, Pituuspiiri: 021-56E, korkeus merenpinnasta: 135 m

Tämänhetkinen sää

Tämä raportti tehtiin 36 minuuttia sitten, kello 08.30 UTC
Tuuli 6 kn lännestä
Lämpötila 7°C
Kosteus 81%
Ilmanpaine 1021 hPa
Näkyvyys 10 km tai enemmän
Pilvistä 4200 ft:n korkeudessa

METAR: LROD 180830Z 26006KT 9999 OVC042 07/04 Q1021

Aika: 11:06 (09:06 UTC)

Sääennuste

Tämä raportti tehtiin 1 tunti ja 6 minuuttia sitten, kello 08.00 UTC
Ennuste voimassa 18. päivästä klo 09 UTC - 18. päivään klo 18 UTC
Tuuli 6 kn lännestä
Näkyvyys 10 km tai enemmän
Hajonneita pilviä 4500 ft:n korkeudessa
Todennäköisyys 40% :
Ajoittain
18. päivästä klo 09 UTC - 18. päivään klo 11 UTC
Näkyvyys: 5000 m
Hajonneita pilviä 1000 ft:n korkeudessa
Pilvistä 2500 ft:n korkeudessa
heikkoa sadetta, utua

TAF: LROD 180800Z 1809/1818 27006KT 9999 BKN045 PROB40 TEMPO 1809/1811 5000 -RA BR BKN010 OVC025

Säähavainnot ja -ennusteet yli 4000 lentoasemalta (METAR- ja TAF-raportit).

Käytössä olevat sääasemat on merkitty karttaan keltaisilla ja punaisilla pisteillä.

Aseta hiiri pisteen päälle nähdäksesi sääaseman nimen.

Klikkaa sitten nähdäksesi säähavainnot ja -ennusteet.

Kartan vaihtaminen: klikkaa mustalla rastilla varustettuja vihreitä pisteitä, niin voit zoomata sisään; viivalla varustettua vihreää pistettä, niin voit zoomata ulos tai vihreitä nuolia, niin pääset viereisille kartoille.


METAR-TAF: